Chumstick, Washington
Current Conditions -  °F | °C
As of 12:07 PM on Sunday 25 Jan 2015 (Local Time) from KEAT Reporting Station
Moderate Fog Moderate Fog  
Wind Chill: 36°   Ceiling: 200
Heat Index: 36°   Visibility: 0.25mi
Dew Point: 35°   Wind: 0mph
Humidity: 97%   Direction: NA
Pressure: 30.24"   Gusts: NA
Location:  47.7866°N, 120.856°W
Report Text: KEAT 252007Z AUTO 00000KT 1/4SM FG VV002 02/02 A3024 RMK AO2 T00220017 $
Loading
Personal Weather Stations






























Interactive Weather Map New forecast layout! Learn more

10-Day Weather Forecast

Advertisements
Track Severe Weather on mobile